• Join FlightAware (Why Join?)
  • Login
  • US Flag 
10:31PM EDT


 

Airport Tracker/Info


-or-


 

Live Flight TrackerFlight Track Log ✈ AWE3921 ✈ 16-Apr-2013 ✈ KDCA - KCAE

Flight Track Log - Related Links

Times and Time Zones

All times are in EDT time to prevent confusion due to time zone crossing. See the AWE3921 flight status page for this flight to view local times or setup timezone preferences in your user account.

Time Position Orientation Groundspeed Altitude Reporting Facility
EDT Latitude Longitude Course Direction KTS MPH feet Rate Location/Type
03:22PM 37.9947 -77.7972 215° Southwest  Level Estimated
03:23PM 37.9230 -77.8597 215° Southwest  Level Estimated
03:24PM 37.8514 -77.9221 214° Southwest  Level Estimated
03:25PM 37.7796 -77.9844 214° Southwest  Level Estimated
03:26PM 37.7079 -78.0465 214° Southwest  Level Estimated
03:27PM 37.6361 -78.1085 214° Southwest  Level Estimated
03:28PM 37.5643 -78.1704 214° Southwest  Level Estimated
03:29PM 37.4924 -78.2322 214° Southwest  Level Estimated
03:30PM 37.4206 -78.2938 214° Southwest  Level Estimated
03:31PM 37.3487 -78.3553 214° Southwest  Level Estimated
03:32PM 37.2767 -78.4167 214° Southwest  Level Estimated
03:33PM 37.2047 -78.4780 214° Southwest  Level Estimated
03:34PM 37.1327 -78.5392 214° Southwest  Level Estimated
03:35PM 37.0607 -78.6003 214° Southwest  Level Estimated
03:36PM 36.9886 -78.6612 214° Southwest  Level Estimated
03:37PM 36.9165 -78.7221 214° Southwest  Level Estimated
03:38PM 36.8444 -78.7828 214° Southwest  Level Estimated
03:39PM 36.7722 -78.8434 214° Southwest  Level Estimated
03:40PM 36.7000 -78.9039 214° Southwest  Level Estimated
03:41PM 36.6278 -78.9642 214° Southwest  Level Estimated
03:42PM 36.5555 -79.0245 214° Southwest  Level Estimated
03:43PM 36.4832 -79.0846 214° Southwest  Level Estimated
03:44PM 36.4109 -79.1447 214° Southwest  Level Estimated
03:45PM 36.3386 -79.2046 214° Southwest  Level Estimated
03:46PM 36.2662 -79.2644 214° Southwest  Level Estimated
03:47PM 36.1938 -79.3241 214° Southwest  Level Estimated
03:48PM 36.1213 -79.3837 214° Southwest  Level Estimated
03:49PM 36.0489 -79.4432 214° Southwest  Level Estimated
03:50PM 35.9764 -79.5026 214° Southwest  Level Estimated
03:51PM 35.9039 -79.5618 214° Southwest  Level Estimated
03:52PM 35.8313 -79.6210 213° Southwest  Level Estimated
03:53PM 35.7588 -79.6800 213° Southwest  Level Estimated
03:54PM 35.6861 -79.7390 213° Southwest  Level Estimated
03:55PM 35.6135 -79.7978 213° Southwest  Level Estimated
03:56PM 35.5408 -79.8565 213° Southwest  Level Estimated
03:57PM 35.4681 -79.9152 213° Southwest  Level Estimated
03:58PM 35.3954 -79.9737 213° Southwest  Level Estimated
03:59PM 35.3227 -80.0321 213° Southwest  Level Estimated
04:00PM 35.2499 -80.0904 213° Southwest  Level Estimated
04:01PM 35.1771 -80.1486 213° Southwest  Level Estimated
04:02PM 35.1042 -80.2067 213° Southwest  Level Estimated
04:03PM 35.0314 -80.2646 213° Southwest  Level Estimated
04:04PM 34.9585 -80.3225 213° Southwest  Level Estimated
04:05PM 34.8856 -80.3803 213° Southwest  Level Estimated
04:06PM 34.8126 -80.4380 213° Southwest  Level Estimated
04:07PM 34.7396 -80.4956 213° Southwest  Level Estimated
04:08PM 34.6666 -80.5531 213° Southwest  Level Estimated
04:09PM 34.5936 -80.6104 213° Southwest  Level Estimated
04:10PM 34.5206 -80.6677 213° Southwest  Level Estimated
04:11PM 34.4475 -80.7249 213° Southwest  Level Estimated
04:12PM 34.3744 -80.7820 213° Southwest  Level Estimated
04:13PM 34.3012 -80.8390 213° Southwest  Level Estimated
04:14PM 34.2281 -80.8958 213° Southwest  Level Estimated
04:15PM 34.1549 -80.9526 213° Southwest  Level Estimated
04:16PM 34.0746 -81.0148 213° Southwest  Level Estimated
04:17PM 33.9943 -81.0768 213° Southwest  Level Estimated
04:18PM 33.9388 -81.1195 213° Southwest  Level Estimated
04:19PM 33.9388 -81.1195 29° Northeast  Level Estimated
04:20PM 33.9388 -81.1195 29° Northeast  Level Estimated
04:21PM 33.9388 -81.1195 29° Northeast  Level Estimated
04:22PM 33.9388 -81.1195 29° Northeast  Level Estimated
04:23PM 33.9388 -81.1195 29° Northeast  Level Estimated
04:24PM 33.9388 -81.1195 29° Northeast  Level Estimated
04:25PM 33.9388 -81.1195 29° Northeast  Level Estimated
04:26PM 33.9388 -81.1195 29° Northeast  Level Estimated
04:27PM 33.9388 -81.1195 29° Northeast  Level Estimated